Time;durP1;ratioP1;P1;durP2;ratioP2;P2;SDS_P1;SDS_P2;PMS_P1;PMS_P2;Temp;Humidity;BMP_temperature;BMP_pressure;BME280_temperature;BME280_humidity;BME280_pressure;Samples;Min_cycle;Max_cycle;Signal;HPM_P1;HPM_P2
2022/11/03 00:00:49;;;;;;;10.35;1.30;;;;;;;8.75;88.06;101361.78;2080808;28;39251;-79
2022/11/03 00:01:51;;;;;;;8.82;1.23;;;;;;;8.71;88.38;101358.25;2081298;28;20041;-80
2022/11/03 00:02:52;;;;;;;7.15;1.10;;;;;;;8.70;88.78;101359.13;2080423;28;34778;-80
2022/11/03 00:03:54;;;;;;;11.40;1.15;;;;;;;8.75;87.74;101354.66;2081009;28;29597;-80
2022/11/03 00:04:56;;;;;;;8.23;1.15;;;;;;;8.73;88.66;101351.09;2084001;28;30228;-79
2022/11/03 00:06:03;;;;;;;10.75;1.38;;;;;;;8.75;87.68;101353.78;2089316;28;31255;-79
2022/11/03 00:07:05;;;;;;;9.38;1.27;;;;;;;8.77;88.68;101349.28;2088880;28;20030;-80
2022/11/03 00:08:07;;;;;;;9.40;1.20;;;;;;;8.84;87.65;101348.34;2089252;28;32073;-79
2022/11/03 00:09:12;;;;;;;9.57;1.33;;;;;;;8.91;86.75;101338.50;2089531;28;20048;-79
2022/11/03 00:10:13;;;;;;;8.50;1.20;;;;;;;8.95;87.46;101343.81;2088365;28;34521;-79
2022/11/03 00:11:17;;;;;;;7.95;1.23;;;;;;;8.94;86.88;101330.47;2089234;28;20084;-79
2022/11/03 00:12:19;;;;;;;8.95;1.23;;;;;;;8.93;86.24;101334.03;2089256;28;30220;-79
2022/11/03 00:13:20;;;;;;;11.15;1.42;;;;;;;8.93;87.41;101339.38;2089051;28;38302;-80
2022/11/03 00:14:22;;;;;;;6.43;0.70;;;;;;;8.89;87.35;101343.84;2089302;28;37220;-80
2022/11/03 00:15:24;;;;;;;13.95;1.60;;;;;;;8.88;86.58;101347.44;2089801;28;20038;-79
2022/11/03 00:16:26;;;;;;;8.85;1.10;;;;;;;8.85;87.49;101354.59;2079939;28;37345;-79
2022/11/03 00:17:28;;;;;;;6.75;0.93;;;;;;;8.81;87.35;101345.72;2081504;28;20049;-79
2022/11/03 00:18:30;;;;;;;9.70;1.10;;;;;;;8.81;87.64;101350.16;2090016;28;20871;-79
2022/11/03 00:19:31;;;;;;;8.80;1.00;;;;;;;8.80;87.38;101354.63;2089048;28;33052;-79
2022/11/03 00:20:33;;;;;;;12.15;1.27;;;;;;;8.78;87.77;101346.63;2089511;28;30441;-79
2022/11/03 00:21:36;;;;;;;6.55;1.08;;;;;;;8.81;88.42;101344.81;2089530;28;24926;-79
2022/11/03 00:22:37;;;;;;;7.68;1.10;;;;;;;8.81;87.84;101344.81;2088690;28;31524;-79
2022/11/03 00:23:42;;;;;;;9.80;1.00;;;;;;;8.86;87.99;101343.00;2089196;28;20048;-79
2022/11/03 00:24:44;;;;;;;8.02;1.15;;;;;;;8.88;86.95;101347.44;2088905;28;33603;-81
2022/11/03 00:25:46;;;;;;;9.50;0.98;;;;;;;8.94;86.75;101341.16;2087808;28;31272;-79
2022/11/03 00:26:49;;;;;;;8.52;1.08;;;;;;;8.93;87.32;101340.25;2088705;28;29509;-79
2022/11/03 00:27:55;;;;;;;9.35;1.02;;;;;;;8.92;86.70;101348.28;2089816;28;23089;-79
2022/11/03 00:29:00;;;;;;;5.63;0.77;;;;;;;8.88;87.35;101346.53;2089145;28;20058;-79
2022/11/03 00:30:02;;;;;;;12.38;1.52;;;;;;;8.91;87.83;101343.84;2088552;28;40670;-80
2022/11/03 00:31:16;;;;;;;10.90;1.10;;;;;;;8.89;86.76;101334.97;2089084;28;33219;-80
2022/11/03 00:32:18;;;;;;;7.75;1.23;;;;;;;8.91;86.83;101341.16;2089336;28;34205;-79
2022/11/03 00:33:25;;;;;;;9.55;1.25;;;;;;;8.92;86.72;101332.28;2089594;28;20981;-79
2022/11/03 00:34:29;;;;;;;8.88;1.10;;;;;;;8.93;87.36;101326.00;2088439;28;20030;-79
2022/11/03 00:35:31;;;;;;;11.60;1.33;;;;;;;8.93;87.36;101334.03;2080797;28;28564;-80
2022/11/03 00:36:43;;;;;;;11.57;1.35;;;;;;;8.90;87.02;101329.59;2088707;28;31326;-80
2022/11/03 00:37:44;;;;;;;8.70;1.00;;;;;;;8.94;87.09;101326.00;2089385;28;29552;-79
2022/11/03 00:38:47;;;;;;;6.45;0.88;;;;;;;8.95;86.56;101321.53;2089041;28;34127;-79
2022/11/03 00:39:51;;;;;;;8.60;1.42;;;;;;;8.93;86.77;101318.00;2088442;28;38572;-80
2022/11/03 00:41:05;;;;;;;10.05;1.33;;;;;;;8.90;87.45;101318.03;2088409;28;30532;-80
2022/11/03 00:42:07;;;;;;;10.82;1.45;;;;;;;8.92;87.36;101316.25;2088680;28;29586;-80
2022/11/03 00:43:09;;;;;;;10.73;0.95;;;;;;;8.91;87.01;101302.00;2088292;28;36802;-79
2022/11/03 00:44:12;;;;;;;9.73;1.30;;;;;;;8.96;87.63;101312.63;2089162;28;31490;-80
2022/11/03 00:45:14;;;;;;;9.88;1.10;;;;;;;8.97;86.72;101307.28;2088777;28;37426;-79
2022/11/03 00:46:19;;;;;;;6.65;1.20;;;;;;;8.98;87.58;101305.50;2088548;28;20045;-80
2022/11/03 00:47:21;;;;;;;10.07;1.08;;;;;;;9.05;86.36;101300.97;2087852;28;37915;-81
2022/11/03 00:48:30;;;;;;;7.00;0.95;;;;;;;9.03;87.03;101297.44;2089155;28;37498;-81
2022/11/03 00:49:31;;;;;;;8.20;0.90;;;;;;;8.99;86.26;101293.91;2088242;28;37648;-79
2022/11/03 00:50:33;;;;;;;8.23;0.80;;;;;;;9.05;87.14;101295.63;2088169;28;32822;-80
2022/11/03 00:51:35;;;;;;;9.88;1.35;;;;;;;9.00;86.25;101292.13;2088712;28;20107;-80
2022/11/03 00:52:36;;;;;;;9.82;1.50;;;;;;;9.02;86.43;101290.31;2088864;28;39769;-80
2022/11/03 00:54:08;;;;;;;8.23;1.17;;;;;;;9.03;86.81;101292.09;2088995;28;30341;-80
2022/11/03 00:55:12;;;;;;;12.65;1.63;;;;;;;8.99;87.54;101293.91;2078619;28;31397;-80
2022/11/03 00:56:21;;;;;;;10.57;1.40;;;;;;;9.01;87.03;101293.88;2088762;28;29290;-80
2022/11/03 00:57:23;;;;;;;10.77;1.48;;;;;;;9.03;87.46;101292.09;2082153;28;20041;-80
2022/11/03 00:58:24;;;;;;;9.10;1.00;;;;;;;9.05;87.21;101296.50;2088467;28;36224;-80
2022/11/03 00:59:26;;;;;;;9.15;0.98;;;;;;;9.01;87.36;101304.56;2089205;28;30183;-79
2022/11/03 01:00:28;;;;;;;10.63;1.20;;;;;;;9.03;86.48;101298.31;2088630;28;28371;-80
2022/11/03 01:01:34;;;;;;;9.55;1.10;;;;;;;9.07;86.43;101300.03;2080830;28;20081;-79
2022/11/03 01:02:41;;;;;;;11.32;1.40;;;;;;;9.03;86.31;101310.78;2082387;28;20069;-79
2022/11/03 01:06:48;;;;;;;9.70;1.35;;;;;;;9.00;87.12;101303.69;2072216;28;38531;-80
2022/11/03 01:06:48;;;;;;;8.20;1.33;;;;;;;9.01;87.75;101305.47;2081020;28;29867;-79
2022/11/03 01:07:52;;;;;;;10.23;1.10;;;;;;;8.99;86.85;101301.94;2089159;28;22219;-79
2022/11/03 01:08:53;;;;;;;7.93;1.27;;;;;;;8.98;87.40;101301.03;2088346;28;29464;-79
2022/11/03 01:09:55;;;;;;;8.70;1.00;;;;;;;9.02;87.36;101291.19;2088105;28;33759;-80
2022/11/03 01:12:31;;;;;;;12.10;1.30;;;;;;;9.03;87.04;101297.44;2088589;28;38771;-79
2022/11/03 01:13:32;;;;;;;6.15;1.02;;;;;;;9.03;87.08;101292.09;2089654;28;30518;-79
2022/11/03 01:14:40;;;;;;;11.35;1.00;;;;;;;9.08;87.37;101293.81;2089127;28;27526;-80
2022/11/03 01:15:42;;;;;;;11.00;1.33;;;;;;;9.07;86.78;101297.38;2089034;28;32989;-79
2022/11/03 01:16:46;;;;;;;9.65;0.90;;;;;;;9.05;87.61;101290.28;2089013;28;26037;-79
2022/11/03 01:17:53;;;;;;;13.98;1.42;;;;;;;9.05;86.68;101292.97;2088880;28;34617;-80
2022/11/03 01:18:54;;;;;;;14.75;1.20;;;;;;;9.08;87.02;101291.13;2087777;28;36431;-79
2022/11/03 01:19:56;;;;;;;10.73;1.17;;;;;;;9.06;86.60;101290.28;2088697;28;20045;-79
2022/11/03 01:20:58;;;;;;;9.82;1.00;;;;;;;9.06;86.70;101295.63;2088731;28;34311;-79
2022/11/03 01:22:03;;;;;;;8.65;1.02;;;;;;;9.07;87.62;101289.34;2089331;28;20046;-79
2022/11/03 01:23:06;;;;;;;9.35;1.20;;;;;;;9.09;86.49;101284.00;2089054;28;35681;-79
2022/11/03 01:24:08;;;;;;;10.10;1.27;;;;;;;9.08;87.91;101280.47;2088109;28;33375;-80
2022/11/03 01:25:10;;;;;;;8.10;0.95;;;;;;;9.07;87.66;101286.69;2079934;28;30039;-79
2022/11/03 01:26:13;;;;;;;7.72;1.27;;;;;;;9.08;87.17;101293.81;2088108;28;39378;-79
2022/11/03 01:27:19;;;;;;;8.75;0.88;;;;;;;9.08;87.70;101292.91;2089154;28;28304;-80
2022/11/03 01:28:21;;;;;;;7.10;0.88;;;;;;;9.07;87.16;101289.34;2089370;28;20845;-79
2022/11/03 01:29:22;;;;;;;12.10;1.50;;;;;;;9.06;87.15;101297.38;2089108;28;34066;-79
2022/11/03 01:30:24;;;;;;;8.27;1.05;;;;;;;9.00;87.95;101293.00;2089266;28;28836;-80
2022/11/03 01:31:27;;;;;;;11.25;1.35;;;;;;;9.01;87.71;101289.44;2089029;28;29082;-80
2022/11/03 01:32:28;;;;;;;7.57;0.85;;;;;;;9.00;88.14;101287.66;2088827;28;33767;-79
2022/11/03 01:33:31;;;;;;;10.25;1.42;;;;;;;8.98;87.70;101289.47;2089179;28;30863;-80
2022/11/03 01:34:33;;;;;;;11.75;1.42;;;;;;;8.96;87.67;101292.16;2089039;28;31026;-79
2022/11/03 01:35:36;;;;;;;9.68;1.60;;;;;;;8.97;88.28;101283.25;2088752;28;30363;-80
2022/11/03 01:36:38;;;;;;;11.05;1.45;;;;;;;8.95;88.91;101284.16;2089150;28;27255;-80
2022/11/03 01:37:39;;;;;;;8.25;1.38;;;;;;;8.97;88.80;101274.31;2088208;28;29484;-80
2022/11/03 01:38:42;;;;;;;14.35;0.90;;;;;;;8.94;88.23;101277.94;2088315;28;35889;-80
2022/11/03 01:39:44;;;;;;;11.50;1.17;;;;;;;8.93;88.23;101273.47;2088910;28;27729;-80
2022/11/03 01:40:45;;;;;;;8.52;1.10;;;;;;;8.96;88.67;101269.91;2088486;28;29762;-80
2022/11/03 01:41:51;;;;;;;11.05;1.23;;;;;;;8.95;88.98;101257.44;2089222;28;22710;-80
2022/11/03 01:42:52;;;;;;;7.38;1.20;;;;;;;8.95;88.37;101261.03;2088981;28;32914;-80
2022/11/03 01:44:06;;;;;;;12.52;1.23;;;;;;;8.96;88.44;101259.22;2089058;28;28850;-80
2022/11/03 01:45:08;;;;;;;7.07;1.20;;;;;;;8.93;88.31;101253.91;2089062;28;22153;-80
2022/11/03 01:46:12;;;;;;;12.02;1.63;;;;;;;8.95;89.01;101254.78;2088430;28;27062;-80
2022/11/03 01:47:28;;;;;;;7.97;1.17;;;;;;;8.94;88.33;101255.69;2088769;28;20042;-80
2022/11/03 01:48:33;;;;;;;8.93;1.30;;;;;;;8.92;88.65;101236.13;2088646;28;35569;-79
2022/11/03 01:49:43;;;;;;;9.70;1.20;;;;;;;8.95;88.16;101247.66;2073335;28;36705;-80
2022/11/03 01:50:47;;;;;;;7.30;1.00;;;;;;;8.92;88.50;101244.16;2082070;28;36378;-79
2022/11/03 01:51:56;;;;;;;12.57;1.35;;;;;;;8.89;89.11;101252.19;2088802;28;34172;-79
2022/11/03 01:52:58;;;;;;;8.60;1.23;;;;;;;8.86;88.28;101252.22;2089389;28;20041;-79
2022/11/03 01:54:08;;;;;;;14.43;1.10;;;;;;;8.83;88.73;101241.56;2087906;28;40157;-79
2022/11/03 01:55:29;;;;;;;8.98;1.30;;;;;;;8.89;89.30;101236.16;2081245;28;28581;-79
2022/11/03 01:56:35;;;;;;;11.18;1.50;;;;;;;8.79;89.13;101236.28;2083730;28;38637;-80
2022/11/03 01:57:59;;;;;;;7.57;1.00;;;;;;;8.80;89.23;101237.16;2083708;28;32410;-80
2022/11/03 01:59:02;;;;;;;12.38;1.20;;;;;;;8.78;89.56;101229.16;2084501;28;24384;-80
2022/11/03 02:00:07;;;;;;;7.40;0.90;;;;;;;8.76;90.03;101233.63;2088068;28;35194;-80
2022/11/03 02:01:15;;;;;;;12.98;1.45;;;;;;;8.75;89.24;101229.16;2090072;28;20180;-80
2022/11/03 02:02:17;;;;;;;6.55;1.23;;;;;;;8.74;90.16;101224.75;2088042;28;36663;-79
2022/11/03 02:03:21;;;;;;;13.43;1.23;;;;;;;8.75;90.12;101217.63;2080021;28;32469;-80
2022/11/03 02:04:29;;;;;;;12.02;1.63;;;;;;;8.72;90.08;101218.53;2079911;28;36707;-80
2022/11/03 02:05:31;;;;;;;9.80;1.38;;;;;;;8.75;90.35;101213.16;2088049;28;39143;-80
2022/11/03 02:06:35;;;;;;;10.88;1.33;;;;;;;8.73;90.05;101211.41;2080054;28;23949;-80
2022/11/03 02:07:57;;;;;;;12.55;1.20;;;;;;;8.71;90.18;101205.22;2080283;28;30549;-80
2022/11/03 02:09:05;;;;;;;10.60;1.73;;;;;;;8.64;89.93;101203.50;2079061;28;36365;-80
2022/11/03 02:10:08;;;;;;;10.45;1.17;;;;;;;8.60;91.07;101200.88;2082113;28;30222;-80
2022/11/03 02:12:36;;;;;;;9.48;1.13;;;;;;;8.61;91.62;101204.41;2088418;28;20124;-80
2022/11/03 02:13:37;;;;;;;7.78;1.10;;;;;;;8.60;91.59;101208.00;2087543;28;38744;-80
2022/11/03 02:14:53;;;;;;;9.23;1.08;;;;;;;8.62;91.23;101195.50;2088610;28;30331;-81
2022/11/03 02:15:58;;;;;;;10.95;1.00;;;;;;;8.65;91.11;101197.25;2087607;28;36456;-79
2022/11/03 02:17:06;;;;;;;9.32;1.15;;;;;;;8.61;90.54;101193.72;2081399;28;33701;-80
2022/11/03 02:18:09;;;;;;;11.35;1.20;;;;;;;8.59;90.94;101195.53;2081218;28;31720;-80
2022/11/03 02:19:46;;;;;;;9.38;1.40;;;;;;;8.65;91.20;101194.59;2080235;28;35594;-80
2022/11/03 02:21:04;;;;;;;10.10;1.27;;;;;;;8.69;91.12;101199.00;2088114;28;35141;-80
2022/11/03 02:22:26;;;;;;;8.45;1.08;;;;;;;8.65;90.77;101195.50;2087366;28;32086;-80
2022/11/03 02:23:30;;;;;;;9.43;1.40;;;;;;;8.58;90.25;101193.78;2085335;28;20044;-80
2022/11/03 02:24:56;;;;;;;9.73;1.38;;;;;;;8.53;91.38;101191.16;2088283;28;31356;-80
2022/11/03 02:25:59;;;;;;;10.68;1.50;;;;;;;8.53;91.06;101185.81;2087823;28;39359;-79
2022/11/03 02:27:01;;;;;;;10.02;1.10;;;;;;;8.52;92.04;101196.50;2074463;28;30202;-79
2022/11/03 02:28:05;;;;;;;8.35;0.90;;;;;;;8.52;91.45;101188.50;2080408;28;31573;-80
2022/11/03 02:29:06;;;;;;;8.55;1.23;;;;;;;8.54;91.63;101192.03;2087374;28;36413;-79
2022/11/03 02:30:09;;;;;;;9.27;1.23;;;;;;;8.50;91.65;101196.50;2080213;28;34356;-80
2022/11/03 02:31:30;;;;;;;7.85;1.15;;;;;;;8.48;91.84;101186.78;2087671;28;35074;-80
2022/11/03 02:33:02;;;;;;;11.93;1.50;;;;;;;8.50;91.97;101196.50;2089096;28;20056;-80
2022/11/03 02:34:25;;;;;;;8.30;1.20;;;;;;;8.56;92.04;101193.81;2088239;28;28015;-80
2022/11/03 02:35:32;;;;;;;11.88;1.35;;;;;;;8.51;91.38;101184.97;2088112;28;35183;-80
2022/11/03 02:36:48;;;;;;;9.85;1.30;;;;;;;8.48;92.03;101186.78;2088568;28;39525;-80
2022/11/03 02:37:56;;;;;;;9.98;1.10;;;;;;;8.41;92.93;101191.25;2089097;28;20026;-79
2022/11/03 02:39:05;;;;;;;11.57;1.30;;;;;;;8.44;92.90;101185.03;2087997;28;34693;-80
2022/11/03 02:40:26;;;;;;;9.63;0.98;;;;;;;8.35;93.30;101181.53;2087474;28;29799;-79
2022/11/03 02:41:34;;;;;;;9.55;1.08;;;;;;;8.40;92.38;101179.69;2082899;28;37766;-80
2022/11/03 02:42:41;;;;;;;8.60;1.30;;;;;;;8.38;92.65;101180.59;2082748;28;39592;-80
2022/11/03 02:43:45;;;;;;;7.95;0.90;;;;;;;8.36;92.98;101174.38;2081645;28;20077;-80
2022/11/03 02:44:47;;;;;;;9.32;1.13;;;;;;;8.34;92.63;101179.75;2080322;28;37104;-80
2022/11/03 02:45:51;;;;;;;11.43;0.95;;;;;;;8.36;93.84;101177.06;2087747;28;29619;-80
2022/11/03 02:47:00;;;;;;;7.32;1.23;;;;;;;8.34;93.10;101177.06;2087747;28;35013;-80
2022/11/03 02:48:06;;;;;;;12.23;1.40;;;;;;;8.34;93.92;101174.41;2080796;28;33320;-80
2022/11/03 02:49:08;;;;;;;9.75;1.48;;;;;;;8.33;93.48;101175.31;2088929;28;20033;-80
2022/11/03 02:50:10;;;;;;;9.30;0.80;;;;;;;8.43;93.87;101164.59;2088192;28;36440;-80
2022/11/03 02:51:12;;;;;;;7.82;1.00;;;;;;;8.44;93.17;101158.34;2088419;28;37789;-80
2022/11/03 02:52:41;;;;;;;13.35;1.05;;;;;;;8.43;93.07;101161.91;2088847;28;20034;-80
2022/11/03 02:54:13;;;;;;;9.70;1.13;;;;;;;8.47;92.73;101148.53;2087477;28;41553;-80
2022/11/03 02:55:35;;;;;;;10.85;1.17;;;;;;;8.46;93.46;101154.75;2063138;28;21161;-80
2022/11/03 02:56:51;;;;;;;12.57;1.20;;;;;;;8.44;92.68;101151.22;2077268;28;31054;-80
2022/11/03 02:58:13;;;;;;;8.00;1.10;;;;;;;8.43;92.77;101141.44;2087971;28;32807;-80
2022/11/03 02:59:22;;;;;;;10.43;1.05;;;;;;;8.43;92.17;101143.25;2084244;28;36037;-80
2022/11/03 03:00:24;;;;;;;7.65;1.20;;;;;;;8.41;93.06;101144.09;2088053;28;20080;-80
2022/11/03 03:01:56;;;;;;;8.00;1.02;;;;;;;8.37;92.78;101142.38;2088407;28;33177;-80
2022/11/03 03:03:13;;;;;;;9.00;1.20;;;;;;;8.37;93.86;101134.34;2088828;28;20045;-81
2022/11/03 03:04:47;;;;;;;9.55;1.15;;;;;;;8.44;93.24;101142.34;2087946;28;31983;-80
2022/11/03 03:05:52;;;;;;;13.73;1.27;;;;;;;8.41;92.86;101141.41;2087846;28;20046;-80
2022/11/03 03:07:07;;;;;;;11.00;0.95;;;;;;;8.41;93.59;101140.56;2088209;28;34782;-80
2022/11/03 03:08:11;;;;;;;11.25;1.15;;;;;;;8.49;93.05;101140.50;2087867;28;35453;-80
2022/11/03 03:09:26;;;;;;;9.10;1.27;;;;;;;8.48;92.95;101128.94;2080907;28;20907;-80
2022/11/03 03:10:37;;;;;;;7.50;0.80;;;;;;;8.50;93.36;101126.25;2086772;28;35759;-80
2022/11/03 03:11:42;;;;;;;7.28;1.20;;;;;;;8.58;93.09;101129.75;2088800;28;20030;-80
2022/11/03 03:12:51;;;;;;;8.05;0.90;;;;;;;8.58;92.87;101124.41;2088074;28;34847;-81
2022/11/03 03:13:53;;;;;;;11.38;1.27;;;;;;;8.54;92.68;101128.88;2088528;28;34498;-80
2022/11/03 03:14:58;;;;;;;11.05;1.20;;;;;;;8.55;92.66;101129.75;2088964;28;25142;-80
2022/11/03 03:16:25;;;;;;;8.27;1.15;;;;;;;8.56;92.06;101123.50;2087999;28;34636;-80
2022/11/03 03:17:39;;;;;;;8.57;0.90;;;;;;;8.58;92.67;101125.28;2086866;28;26793;-80
2022/11/03 03:19:08;;;;;;;8.25;1.20;;;;;;;8.60;92.25;101125.25;2082650;28;32612;-80
2022/11/03 03:20:19;;;;;;;7.85;0.90;;;;;;;8.60;92.37;101125.25;2085105;28;31411;-80
2022/11/03 03:21:25;;;;;;;11.27;1.67;;;;;;;8.58;92.23;101124.41;2084025;28;35738;-81
2022/11/03 03:22:48;;;;;;;9.77;1.10;;;;;;;8.54;92.91;101122.66;2080890;28;34849;-81
2022/11/03 03:24:01;;;;;;;8.60;1.23;;;;;;;8.52;93.05;101116.44;2074338;28;33092;-79
2022/11/03 03:25:41;;;;;;;9.30;1.08;;;;;;;8.52;92.99;101120.00;2084214;28;30178;-78
2022/11/03 03:26:48;;;;;;;9.87;1.20;;;;;;;8.46;92.26;101130.75;2053207;28;33390;-80
2022/11/03 03:28:00;;;;;;;8.88;1.08;;;;;;;8.47;93.25;101115.59;2079931;28;38565;-79
2022/11/03 03:29:10;;;;;;;6.78;0.80;;;;;;;8.43;92.96;101109.44;2082037;28;20779;-78
2022/11/03 03:30:13;;;;;;;9.98;0.93;;;;;;;8.48;92.62;101114.72;2081724;28;31057;-79
2022/11/03 03:31:18;;;;;;;7.20;1.17;;;;;;;8.43;92.24;101113.88;2080424;28;28895;-78
2022/11/03 03:32:24;;;;;;;9.75;1.17;;;;;;;8.37;93.18;101115.69;2087072;28;32387;-81
2022/11/03 03:33:31;;;;;;;7.22;1.13;;;;;;;8.40;94.51;101113.00;2086625;28;35361;-79
2022/11/03 03:34:35;;;;;;;10.90;1.23;;;;;;;8.39;93.33;101111.22;2087982;28;20041;-80
2022/11/03 03:35:43;;;;;;;10.13;1.50;;;;;;;8.34;94.17;101109.50;2087245;28;27728;-80
2022/11/03 03:36:48;;;;;;;7.35;0.98;;;;;;;8.30;94.09;101116.66;2080453;28;30312;-79
2022/11/03 03:37:57;;;;;;;8.18;0.93;;;;;;;8.29;94.52;101116.66;2080999;28;31431;-79
2022/11/03 03:39:05;;;;;;;12.85;1.70;;;;;;;8.23;94.10;101115.81;2080578;28;38948;-79
2022/11/03 03:40:11;;;;;;;10.73;0.90;;;;;;;8.22;94.52;101121.19;2080808;28;29601;-79
2022/11/03 03:41:20;;;;;;;15.07;1.42;;;;;;;8.17;94.26;101115.03;2088445;28;28298;-81
2022/11/03 03:42:27;;;;;;;14.25;1.20;;;;;;;8.16;95.57;101122.13;2087173;28;37367;-80
2022/11/03 03:43:34;;;;;;;6.32;0.88;;;;;;;8.10;95.26;101121.31;2087824;28;30759;-81
2022/11/03 03:44:39;;;;;;;12.48;0.90;;;;;;;8.10;94.91;101124.00;2087640;28;36630;-79
2022/11/03 03:45:44;;;;;;;12.35;1.20;;;;;;;8.02;95.61;101121.38;2087424;28;28593;-78
2022/11/03 03:46:54;;;;;;;11.50;0.90;;;;;;;8.08;96.11;101121.34;2080200;28;30857;-79
2022/11/03 03:47:57;;;;;;;11.15;1.38;;;;;;;8.03;95.37;101125.81;2080565;28;34859;-80
2022/11/03 03:49:01;;;;;;;10.50;0.90;;;;;;;8.00;95.96;101126.75;2080077;28;37443;-79
2022/11/03 03:50:04;;;;;;;12.40;1.27;;;;;;;7.97;96.60;101121.44;2087433;28;32860;-79
2022/11/03 03:51:07;;;;;;;6.85;1.17;;;;;;;7.94;96.44;101126.78;2087812;28;32412;-79
2022/11/03 03:52:09;;;;;;;8.18;0.90;;;;;;;7.96;96.77;101124.13;2087962;28;20073;-80
2022/11/03 03:53:12;;;;;;;8.20;0.80;;;;;;;7.91;96.08;101126.81;2079217;28;32243;-79
2022/11/03 03:54:13;;;;;;;11.60;1.42;;;;;;;7.90;96.63;101129.50;2079442;28;30920;-79
2022/11/03 03:55:19;;;;;;;9.05;0.80;;;;;;;7.88;97.47;101125.94;2087474;28;28077;-79
2022/11/03 03:56:35;;;;;;;8.80;1.27;;;;;;;7.89;97.51;101130.41;2086955;28;27748;-80
2022/11/03 03:57:37;;;;;;;11.00;1.42;;;;;;;7.98;97.58;101123.19;2082652;28;20038;-79
2022/11/03 03:58:41;;;;;;;11.00;1.15;;;;;;;8.06;95.90;101119.56;2087340;28;39600;-79
2022/11/03 03:59:43;;;;;;;20.77;1.45;;;;;;;8.00;96.72;101124.09;2087712;28;36318;-79
2022/11/03 04:00:48;;;;;;;9.77;0.98;;;;;;;8.08;96.08;101120.47;2088041;28;33234;-80
2022/11/03 04:01:49;;;;;;;10.43;1.25;;;;;;;8.13;96.54;101119.50;2088037;28;28762;-80
2022/11/03 04:02:51;;;;;;;14.35;1.45;;;;;;;8.13;95.34;101122.19;2087940;28;30692;-80
2022/11/03 04:03:53;;;;;;;10.60;1.27;;;;;;;8.16;95.63;101121.25;2087905;28;28900;-79
2022/11/03 04:04:55;;;;;;;12.45;1.20;;;;;;;8.17;96.09;101125.69;2088072;28;29442;-79
2022/11/03 04:05:56;;;;;;;11.10;1.35;;;;;;;8.18;95.17;101122.09;2086827;28;36296;-79
2022/11/03 04:08:36;;;;;;;6.30;0.90;;;;;;;8.23;95.71;101117.63;2067813;28;20075;-80
2022/11/03 04:09:38;;;;;;;9.35;1.02;;;;;;;8.27;95.94;101124.69;2083670;28;32192;-80
2022/11/03 04:22:15;;;;;;;7.15;0.90;;;;;;;8.26;94.62;101114.94;2087009;28;38279;-79
2022/11/03 04:22:53;;;;;;;9.50;1.00;;;;;;;8.35;94.28;101098.81;2088986;28;20034;-80
2022/11/03 04:23:54;;;;;;;10.32;0.85;;;;;;;8.31;94.74;101089.09;2087829;28;33942;-80
2022/11/03 04:24:57;;;;;;;10.82;1.20;;;;;;;8.32;94.62;101095.31;2087698;28;37945;-79
2022/11/03 04:26:00;;;;;;;9.80;1.10;;;;;;;8.32;94.43;101095.31;2087172;28;31975;-79
2022/11/03 04:27:21;;;;;;;9.05;0.90;;;;;;;8.32;94.83;101089.97;2079341;28;34070;-80
2022/11/03 04:28:24;;;;;;;10.00;0.90;;;;;;;8.36;94.52;101092.59;2082490;28;29365;-80
2022/11/03 04:29:27;;;;;;;7.30;1.00;;;;;;;8.34;94.48;101088.16;2074749;28;33427;-79
2022/11/03 04:30:29;;;;;;;7.13;0.95;;;;;;;8.38;95.02;101081.88;2079951;28;40369;-80
2022/11/03 04:31:35;;;;;;;12.73;1.35;;;;;;;8.41;94.88;101082.72;2090135;28;20047;-80
2022/11/03 04:32:37;;;;;;;7.03;0.80;;;;;;;8.45;94.55;101080.94;2088255;28;32863;-80
2022/11/03 04:33:40;;;;;;;11.43;1.20;;;;;;;8.43;94.57;101084.53;2088369;28;34629;-79
2022/11/03 04:34:45;;;;;;;9.20;1.00;;;;;;;8.44;95.03;101089.84;2088540;28;29473;-80
2022/11/03 04:35:47;;;;;;;9.43;1.17;;;;;;;8.44;94.19;101088.97;2080641;28;33658;-79
2022/11/03 04:36:49;;;;;;;8.45;0.80;;;;;;;8.44;94.06;101086.31;2088291;28;38444;-80
2022/11/03 04:37:59;;;;;;;7.22;1.00;;;;;;;8.44;93.83;101088.97;2089144;28;20045;-79
2022/11/03 04:39:00;;;;;;;11.27;1.00;;;;;;;8.40;93.83;101094.31;2089207;28;33989;-79
2022/11/03 04:40:14;;;;;;;11.35;1.35;;;;;;;8.46;94.14;101084.50;2087364;28;32650;-80
2022/11/03 04:41:32;;;;;;;14.40;1.30;;;;;;;8.46;94.32;101081.84;2081665;28;38566;-79
2022/11/03 04:42:34;;;;;;;9.88;1.30;;;;;;;8.48;94.88;101086.25;2083956;28;35740;-80
2022/11/03 04:43:37;;;;;;;6.57;0.90;;;;;;;8.47;94.54;101083.59;2088663;28;29372;-79
2022/11/03 04:44:39;;;;;;;9.43;1.20;;;;;;;8.48;94.81;101090.72;2089153;28;34366;-79
2022/11/03 04:45:44;;;;;;;13.45;1.10;;;;;;;8.42;94.92;101081.00;2089870;28;20049;-80
2022/11/03 04:46:46;;;;;;;10.73;1.30;;;;;;;8.50;94.77;101079.09;2087325;28;39896;-80
2022/11/03 04:47:48;;;;;;;5.85;0.90;;;;;;;8.46;93.47;101081.84;2088659;28;34160;-80
2022/11/03 04:48:57;;;;;;;14.55;1.20;;;;;;;8.52;94.50;101081.75;2089477;28;20997;-80
2022/11/03 04:49:59;;;;;;;8.13;0.98;;;;;;;8.48;93.99;101077.38;2089057;28;39486;-80
2022/11/03 04:51:12;;;;;;;10.93;1.33;;;;;;;8.44;94.30;101078.31;2089036;28;36840;-80
2022/11/03 04:52:21;;;;;;;9.20;1.20;;;;;;;8.39;95.47;101075.66;2089368;28;34909;-80
2022/11/03 04:53:23;;;;;;;11.20;1.10;;;;;;;8.41;94.83;101076.50;2089443;28;31919;-80
2022/11/03 04:54:25;;;;;;;7.72;1.13;;;;;;;8.46;94.80;101072.03;2089219;28;20034;-80
2022/11/03 04:55:27;;;;;;;8.13;1.10;;;;;;;8.48;94.54;101069.34;2080059;28;31601;-81
2022/11/03 04:56:29;;;;;;;8.07;1.08;;;;;;;8.46;94.50;101065.84;2088803;28;22291;-80
2022/11/03 04:57:31;;;;;;;13.07;1.33;;;;;;;8.55;94.18;101071.94;2088265;28;30953;-81
2022/11/03 04:58:34;;;;;;;7.25;1.10;;;;;;;8.50;94.31;101067.56;2088127;28;37704;-80
2022/11/03 04:59:38;;;;;;;10.48;1.60;;;;;;;8.50;94.04;101064.88;2087902;28;28539;-80
2022/11/03 05:00:39;;;;;;;16.02;1.80;;;;;;;8.47;94.59;101055.16;2087866;28;33433;-80
2022/11/03 05:01:45;;;;;;;12.82;1.17;;;;;;;8.46;94.52;101064.03;2080549;28;29164;-80
2022/11/03 05:02:49;;;;;;;8.77;1.50;;;;;;;8.46;94.98;101066.72;2080252;28;35522;-80
2022/11/03 05:03:53;;;;;;;10.10;1.02;;;;;;;8.48;94.28;101067.56;2080374;28;35952;-80
2022/11/03 05:04:55;;;;;;;10.13;1.20;;;;;;;8.51;94.33;101064.00;2080932;28;35350;-80
2022/11/03 05:06:00;;;;;;;11.05;1.50;;;;;;;8.49;94.61;101060.44;2080417;28;35735;-80
2022/11/03 05:07:17;;;;;;;7.85;1.20;;;;;;;8.44;94.41;101063.19;2080386;28;37230;-80
2022/11/03 05:08:21;;;;;;;11.60;1.30;;;;;;;8.48;94.91;101056.91;2088829;28;20955;-79
2022/11/03 05:09:28;;;;;;;12.63;1.40;;;;;;;8.46;94.10;101053.38;2088089;28;38834;-80
2022/11/03 05:10:30;;;;;;;6.78;1.02;;;;;;;8.41;94.47;101053.38;2087952;28;32938;-80
2022/11/03 05:11:38;;;;;;;10.23;1.13;;;;;;;8.37;94.52;101049.00;2088486;28;20910;-80
2022/11/03 05:12:41;;;;;;;12.65;1.48;;;;;;;8.39;95.24;101054.31;2088036;28;36574;-80
2022/11/03 05:13:43;;;;;;;6.07;1.20;;;;;;;8.39;95.36;101048.97;2080064;28;31371;-80
2022/11/03 05:14:45;;;;;;;7.05;1.27;;;;;;;8.39;95.74;101048.97;2093031;28;33002;-80
2022/11/03 05:15:48;;;;;;;11.50;1.17;;;;;;;8.36;95.50;101044.56;2097717;28;31715;-80
2022/11/03 05:16:55;;;;;;;12.35;1.33;;;;;;;8.37;95.78;101046.31;2096620;28;36534;-80
2022/11/03 05:18:00;;;;;;;10.38;1.42;;;;;;;8.44;94.83;101048.97;2096708;28;33383;-80
2022/11/03 05:19:01;;;;;;;9.45;1.50;;;;;;;8.42;95.54;101040.97;2092752;28;33921;-80
2022/11/03 05:20:05;;;;;;;10.65;1.40;;;;;;;8.45;94.84;101037.38;2088640;28;31831;-80
2022/11/03 05:21:20;;;;;;;11.15;1.15;;;;;;;8.45;95.10;101026.69;2087670;28;31887;-80
2022/11/03 05:22:25;;;;;;;9.40;1.40;;;;;;;8.45;94.76;101024.91;2087961;28;30252;-80
2022/11/03 05:23:35;;;;;;;11.60;1.25;;;;;;;8.45;95.08;101026.69;2088287;28;34584;-80
2022/11/03 05:24:38;;;;;;;15.35;1.73;;;;;;;8.53;94.92;101025.69;2087967;28;20048;-80
2022/11/03 05:25:46;;;;;;;10.68;1.17;;;;;;;8.45;95.76;101027.56;2087909;28;33394;-80
2022/11/03 05:26:48;;;;;;;11.88;1.58;;;;;;;8.48;95.40;101024.00;2088750;28;25994;-81
2022/11/03 05:27:52;;;;;;;9.10;1.20;;;;;;;8.50;96.08;101027.53;2088449;28;35604;-81
2022/11/03 05:29:13;;;;;;;12.63;1.42;;;;;;;8.45;95.05;101016.03;2087966;28;33605;-80